St Leonards-on-Sea, United Kingdom
Current Conditions -  °F | °C
As of 2:20 PM on Thursday 23 Oct 2014 (Local Time) from EGMD Reporting Station
Light Rain Light Rain  
Wind Chill: 59°   Ceiling: 2000
Heat Index: 59°   Visibility: 4mi
Dew Point: 55°   Wind: 17mph
Humidity: 88%   Direction: 230°SW
Pressure: 30.15"   Gusts: NA
Location:  50.85°N, 0.56°E
Report Text: EGMD 231320Z 23015KT 7000 -RADZ SCT009 BKN020 15/13 Q1021
Loading
Personal Weather Stations






























Interactive Weather Map
Tropical Storm Tracking
New forecast layout! Learn more

10-Day Weather Forecast

Advertisements
Track Severe Weather on mobile